This is the latest recevied weather packets stored in our database for station/object NE8U. If no packets are shown the sender has not sent any weather packets the latest 1 day(s).
| Time | Temp. | Humidity | Pressure | Rain* | Wind** | Luminosity | Snow |
|---|---|---|---|---|---|---|---|
| 1778035080 | 20° C | 38% | 1013.1 hPa | 0 mm | 0 m/s | 0 W/m² | - |
| 1778034778 | 20° C | 38% | 1013.1 hPa | 0 mm | 0 m/s | 0 W/m² | - |
| 1778034474 | 20° C | 38% | 1013 hPa | 0 mm | 0 m/s | 0 W/m² | - |
| 1778034172 | 20° C | 37% | 1012.7 hPa | 0 mm | 0 m/s | 0 W/m² | - |
| 1778033870 | 20° C | 37% | 1012.8 hPa | 0 mm | 0 m/s | 0 W/m² | - |
| 1778033567 | 20.56° C | 36% | 1012.8 hPa | 0 mm | 0.45 m/s, 198° | 0 W/m² | - |
| 1778033263 | 20.56° C | 35% | 1012.6 hPa | 0 mm | 0.45 m/s, 254° | 2 W/m² | - |
| 1778032961 | 20.56° C | 34% | 1012.5 hPa | 0 mm | 0 m/s | 4 W/m² | - |
| 1778032658 | 20.56° C | 34% | 1012.6 hPa | 0 mm | 1.34 m/s, 286° | 8 W/m² | - |
| 1778032356 | 20.56° C | 33% | 1012.6 hPa | 0 mm | 0 m/s | 12 W/m² | - |
| 1778032052 | 21.11° C | 32% | 1012.4 hPa | 0 mm | 0 m/s | 15 W/m² | - |
| 1778031749 | 21.11° C | 32% | 1012.3 hPa | 0 mm | 0 m/s | 17 W/m² | - |
| 1778031446 | 21.67° C | 31% | 1012.3 hPa | 0 mm | 0 m/s | 20 W/m² | - |
| 1778031143 | 21.67° C | 31% | 1012.3 hPa | 0 mm | 0 m/s | 25 W/m² | - |
| 1778030839 | 21.67° C | 31% | 1012.2 hPa | 0 mm | 0 m/s | 27 W/m² | - |
| 1778030537 | 22.22° C | 32% | 1012.3 hPa | 0 mm | 0 m/s | 29 W/m² | - |
| 1778030234 | 22.22° C | 32% | 1012.2 hPa | 0 mm | 1.34 m/s, 220° | 32 W/m² | - |
| 1778029930 | 22.22° C | 32% | 1012.1 hPa | 0 mm | 2.24 m/s, 283° | 39 W/m² | - |
| 1778029629 | 22.22° C | 32% | 1012.1 hPa | 0 mm | 3.58 m/s, 244° | 49 W/m² | - |
| 1778029326 | 22.78° C | 32% | 1012.1 hPa | 0 mm | 2.68 m/s, 223° | 53 W/m² | - |
| 1778029023 | 22.78° C | 32% | 1012.1 hPa | 0 mm | 0.45 m/s, 241° | 69 W/m² | - |
| 1778028719 | 22.78° C | 32% | 1011.6 hPa | 0 mm | 2.68 m/s, 192° | 106 W/m² | - |
| 1778028415 | 23.33° C | 31% | 1011.7 hPa | 0 mm | 0 m/s | 121 W/m² | - |
| 1778028113 | 23.33° C | 30% | 1011.9 hPa | 0 mm | 0.45 m/s, 209° | 64 W/m² | - |
| 1778027809 | 22.78° C | 31% | 1012 hPa | 0 mm | 0 m/s | 62 W/m² | - |
* Rain latest hour (hover to see other rain measurements)
** Current wind speed in m/s (hover to see current wind gust speed)